Time;durP1;ratioP1;P1;durP2;ratioP2;P2;SDS_P1;SDS_P2;PMS_P1;PMS_P2;Temp;Humidity;BMP_temperature;BMP_pressure;BME280_temperature;BME280_humidity;BME280_pressure;Samples;Min_cycle;Max_cycle;Signal;HPM_P1;HPM_P2
2023/05/10 00:00:18;;;;;;;29.60;14.55;;;13.30;99.90;;;;;;5090862;28;20047;-73
2023/05/10 00:02:44;;;;;;;27.00;13.75;;;13.30;99.90;;;;;;5074551;28;20040;-73
2023/05/10 00:05:09;;;;;;;17.65;12.02;;;13.30;99.90;;;;;;5076209;28;20043;-74
2023/05/10 00:07:35;;;;;;;15.45;10.77;;;13.20;99.90;;;;;;5096442;28;20090;-74
2023/05/10 00:10:01;;;;;;;16.73;11.52;;;13.10;99.90;;;;;;5078831;28;20037;-73
2023/05/10 00:12:26;;;;;;;16.23;11.85;;;13.00;99.90;;;;;;5092552;28;20055;-73
2023/05/10 00:14:52;;;;;;;17.95;12.68;;;13.00;99.90;;;;;;5094768;28;20046;-73
2023/05/10 00:17:18;;;;;;;17.50;12.32;;;12.90;99.90;;;;;;5092572;28;20656;-73
2023/05/10 00:19:43;;;;;;;19.08;13.90;;;12.80;99.90;;;;;;5063114;28;20071;-73
2023/05/10 00:22:10;;;;;;;18.08;13.27;;;12.80;99.90;;;;;;5073336;28;20516;-73
2023/05/10 00:24:36;;;;;;;20.90;13.35;;;12.80;99.90;;;;;;5075007;28;20110;-69
2023/05/10 00:27:03;;;;;;;19.92;13.43;;;12.70;99.90;;;;;;5086509;28;21667;-70
2023/05/10 00:29:29;;;;;;;19.25;12.82;;;12.60;99.90;;;;;;5069157;28;20059;-69
2023/05/10 00:31:56;;;;;;;20.02;13.57;;;12.60;99.90;;;;;;5068587;28;20035;-69
2023/05/10 00:34:21;;;;;;;18.85;13.45;;;12.60;99.90;;;;;;5071871;28;20031;-68
2023/05/10 00:36:47;;;;;;;20.05;13.50;;;12.50;99.90;;;;;;5086712;28;20550;-69
2023/05/10 00:39:13;;;;;;;25.42;12.55;;;12.50;99.90;;;;;;5089998;28;20062;-74
2023/05/10 00:41:38;;;;;;;18.95;12.40;;;12.50;99.90;;;;;;5074323;28;20433;-74
2023/05/10 00:44:04;;;;;;;18.13;12.48;;;12.40;99.90;;;;;;5073854;28;20580;-74
2023/05/10 00:46:30;;;;;;;22.98;13.57;;;12.40;99.90;;;;;;5076712;28;20046;-74
2023/05/10 00:48:56;;;;;;;23.13;13.30;;;12.40;99.90;;;;;;5087696;28;20048;-73
2023/05/10 00:51:22;;;;;;;20.63;13.10;;;12.30;99.90;;;;;;5094833;28;20570;-74
2023/05/10 00:53:49;;;;;;;27.65;14.93;;;12.30;99.90;;;;;;5090203;28;20114;-73
2023/05/10 00:56:15;;;;;;;27.50;15.15;;;12.30;99.90;;;;;;5080249;28;20036;-74
2023/05/10 00:58:42;;;;;;;24.77;14.70;;;12.30;99.90;;;;;;5058923;28;20121;-73
2023/05/10 01:01:08;;;;;;;27.85;15.35;;;12.30;99.90;;;;;;5092793;28;20060;-74
2023/05/10 01:03:35;;;;;;;23.42;14.43;;;12.30;99.90;;;;;;5078814;28;20108;-75
2023/05/10 01:06:01;;;;;;;23.63;13.57;;;12.30;99.90;;;;;;5069281;28;20521;-74
2023/05/10 01:08:28;;;;;;;22.05;12.93;;;12.20;99.90;;;;;;5068034;28;20074;-73
2023/05/10 01:10:54;;;;;;;19.88;12.10;;;12.20;99.90;;;;;;5087994;28;20064;-73
2023/05/10 01:13:39;;;;;;;25.00;13.68;;;12.30;99.90;;;;;;5089990;28;20417;-73
2023/05/10 01:16:06;;;;;;;22.23;12.85;;;12.20;99.90;;;;;;5090027;28;20055;-74
2023/05/10 01:18:44;;;;;;;25.67;14.45;;;12.20;99.90;;;;;;5073377;28;20071;-74
2023/05/10 01:21:28;;;;;;;26.60;14.13;;;12.20;99.90;;;;;;5103424;27;20032;-73
2023/05/10 01:31:01;;;;;;;26.80;13.88;;;12.20;99.90;;;;;;5046518;28;20565;-70
2023/05/10 01:33:35;;;;;;;23.27;12.98;;;12.10;99.90;;;;;;5030145;28;20152;-69
2023/05/10 01:36:25;;;;;;;26.38;13.80;;;12.10;99.90;;;;;;5049010;28;20042;-69
2023/05/10 01:39:14;;;;;;;24.33;13.55;;;12.10;99.90;;;;;;5031140;28;20244;-69
2023/05/10 01:41:52;;;;;;;24.92;13.10;;;12.10;99.90;;;;;;5046091;28;20048;-70
2023/05/10 01:44:31;;;;;;;28.08;14.30;;;12.10;99.90;;;;;;5045532;28;20025;-69
2023/05/10 01:47:06;;;;;;;25.30;14.50;;;12.10;99.90;;;;;;5049548;28;20033;-70
2023/05/10 01:49:41;;;;;;;20.85;12.43;;;12.10;99.90;;;;;;5045406;28;20482;-69
2023/05/10 01:52:10;;;;;;;25.40;13.45;;;12.10;99.90;;;;;;5045303;28;20051;-69
2023/05/10 01:54:41;;;;;;;21.70;11.65;;;12.10;99.90;;;;;;5047965;28;20048;-69
2023/05/10 01:57:09;;;;;;;27.48;12.95;;;12.10;99.90;;;;;;5047103;28;20502;-69
2023/05/10 01:59:40;;;;;;;25.27;13.98;;;12.10;99.90;;;;;;5045537;28;20187;-70
2023/05/10 02:02:07;;;;;;;26.90;13.43;;;12.10;99.90;;;;;;5047050;28;20044;-69
2023/05/10 02:04:37;;;;;;;23.38;12.00;;;12.10;99.90;;;;;;5046021;28;20053;-69
2023/05/10 02:07:04;;;;;;;30.52;13.32;;;12.10;99.90;;;;;;5045773;28;21124;-69
2023/05/10 02:09:33;;;;;;;27.10;13.93;;;12.10;99.90;;;;;;5025286;28;20055;-68
2023/05/10 02:12:02;;;;;;;26.65;12.35;;;12.10;99.90;;;;;;5044726;28;20063;-68
2023/05/10 02:14:32;;;;;;;28.10;13.18;;;12.10;99.90;;;;;;5029824;28;20045;-69
2023/05/10 02:16:59;;;;;;;22.92;12.70;;;12.10;99.90;;;;;;5027946;28;20028;-69
2023/05/10 02:19:28;;;;;;;23.70;12.45;;;12.10;99.90;;;;;;5028574;28;20115;-69
2023/05/10 02:21:55;;;;;;;21.75;12.15;;;12.10;99.90;;;;;;5028911;28;20055;-69
2023/05/10 02:24:23;;;;;;;21.05;11.43;;;12.10;99.90;;;;;;5046015;28;20537;-69
2023/05/10 02:26:51;;;;;;;22.73;12.25;;;12.00;99.90;;;;;;5043139;28;20049;-68
2023/05/10 02:29:18;;;;;;;25.00;12.82;;;12.00;99.90;;;;;;5025910;28;20048;-69
2023/05/10 02:31:45;;;;;;;24.13;12.32;;;12.00;99.90;;;;;;5046840;28;20398;-69
2023/05/10 02:34:12;;;;;;;22.02;11.82;;;12.00;99.90;;;;;;4998060;28;20045;-69
2023/05/10 02:36:40;;;;;;;21.08;11.85;;;12.00;99.90;;;;;;5046497;28;20044;-69
2023/05/10 02:39:12;;;;;;;24.15;12.82;;;12.00;99.90;;;;;;5026893;28;20043;-69
2023/05/10 02:41:41;;;;;;;24.55;11.18;;;12.00;99.90;;;;;;5027944;28;20066;-69
2023/05/10 02:44:08;;;;;;;20.77;10.32;;;12.00;99.90;;;;;;5047407;28;20044;-69
2023/05/10 02:46:35;;;;;;;18.75;10.05;;;12.00;99.90;;;;;;5028144;28;20045;-68
2023/05/10 02:49:01;;;;;;;26.88;12.10;;;11.90;99.90;;;;;;5045686;28;20041;-69
2023/05/10 02:51:34;;;;;;;20.48;10.70;;;11.90;99.90;;;;;;5045943;28;20047;-68
2023/05/10 02:54:03;;;;;;;;;;;11.90;99.90;;;;;;5048519;28;20070;-69
2023/05/10 02:56:34;;;;;;;21.02;10.85;;;11.90;99.90;;;;;;5047191;28;19936;-68
2023/05/10 02:59:00;;;;;;;22.60;11.43;;;11.90;99.90;;;;;;5026870;28;20098;-68
2023/05/10 03:01:25;;;;;;;23.83;11.50;;;11.90;99.90;;;;;;5026761;28;20421;-69
2023/05/10 03:03:51;;;;;;;23.15;12.02;;;11.80;99.90;;;;;;5048313;28;20398;-70
2023/05/10 03:06:17;;;;;;;30.10;12.43;;;11.90;99.90;;;;;;5029274;28;20037;-68
2023/05/10 03:08:44;;;;;;;25.48;12.18;;;11.90;99.90;;;;;;5044384;28;20033;-69
2023/05/10 03:11:12;;;;;;;25.80;11.45;;;11.80;99.90;;;;;;5026869;28;20029;-69
2023/05/10 03:14:05;;;;;;;21.98;11.43;;;11.80;99.90;;;;;;5028502;28;20048;-68
2023/05/10 03:16:41;;;;;;;22.90;11.55;;;11.90;99.90;;;;;;5045499;28;20120;-69
2023/05/10 03:19:32;;;;;;;26.02;11.75;;;11.80;99.90;;;;;;5040325;28;20045;-69
2023/05/10 03:22:03;;;;;;;20.88;11.43;;;11.80;99.90;;;;;;5043675;28;20076;-69
2023/05/10 03:24:30;;;;;;;20.73;11.55;;;11.80;99.90;;;;;;5048020;28;20040;-70
2023/05/10 03:27:02;;;;;;;23.70;11.90;;;11.80;99.90;;;;;;5048977;28;20041;-69
2023/05/10 03:29:29;;;;;;;22.90;11.90;;;11.80;99.90;;;;;;5014362;28;20447;-69
2023/05/10 03:31:55;;;;;;;19.35;10.38;;;11.80;99.90;;;;;;5008738;28;20041;-69
2023/05/10 03:34:25;;;;;;;22.27;11.73;;;11.80;99.90;;;;;;5049295;28;20033;-69
2023/05/10 03:36:50;;;;;;;19.30;10.38;;;11.80;99.90;;;;;;5042146;28;20037;-69
2023/05/10 03:39:16;;;;;;;24.63;11.50;;;11.80;99.90;;;;;;5034035;28;20721;-69
2023/05/10 03:41:42;;;;;;;26.67;10.95;;;11.80;99.90;;;;;;5013766;28;20044;-69
2023/05/10 03:44:08;;;;;;;23.70;11.70;;;11.80;99.90;;;;;;5031042;28;20037;-69
2023/05/10 03:46:33;;;;;;;24.58;11.88;;;11.80;99.90;;;;;;5046778;28;20049;-69
2023/05/10 03:48:59;;;;;;;24.00;11.73;;;11.80;99.90;;;;;;5031507;28;20044;-69
2023/05/10 03:51:27;;;;;;;23.80;11.82;;;11.80;99.90;;;;;;5044414;28;20044;-69
2023/05/10 03:53:55;;;;;;;24.50;11.30;;;11.80;99.90;;;;;;5034583;28;20144;-69
2023/05/10 03:56:21;;;;;;;21.48;10.93;;;11.80;99.90;;;;;;5016457;28;20065;-69
2023/05/10 03:58:46;;;;;;;20.60;10.90;;;11.80;99.90;;;;;;5014789;28;20130;-69
2023/05/10 04:01:12;;;;;;;22.73;10.55;;;11.80;99.90;;;;;;5044592;28;20098;-70
2023/05/10 04:03:38;;;;;;;22.27;10.30;;;11.80;99.90;;;;;;5036473;28;20033;-68
2023/05/10 04:06:05;;;;;;;19.95;10.98;;;11.80;99.90;;;;;;5028957;28;20394;-69
2023/05/10 04:08:31;;;;;;;18.10;10.07;;;11.80;99.90;;;;;;5047985;28;20045;-69
2023/05/10 04:11:11;;;;;;;16.08;9.50;;;11.80;99.90;;;;;;5045847;28;20041;-69
2023/05/10 04:13:37;;;;;;;16.80;9.70;;;11.80;99.90;;;;;;5045791;28;20057;-68
2023/05/10 04:16:02;;;;;;;16.13;9.35;;;11.70;99.90;;;;;;5030127;28;20394;-69
2023/05/10 04:18:28;;;;;;;15.10;9.20;;;11.70;99.90;;;;;;5050649;28;20032;-69
2023/05/10 04:20:54;;;;;;;14.35;9.00;;;11.70;99.90;;;;;;5047914;28;20086;-68
2023/05/10 04:23:20;;;;;;;15.25;9.00;;;11.70;99.90;;;;;;5029278;28;20045;-70
2023/05/10 04:25:45;;;;;;;13.05;8.80;;;11.70;99.90;;;;;;5029146;28;20541;-69
2023/05/10 04:28:11;;;;;;;13.88;8.70;;;11.70;99.90;;;;;;5030918;28;20052;-68
2023/05/10 04:30:37;;;;;;;14.90;9.30;;;11.70;99.90;;;;;;5013253;28;20572;-69
2023/05/10 04:33:03;;;;;;;14.65;8.70;;;11.70;99.90;;;;;;5051114;28;20401;-69
2023/05/10 04:35:29;;;;;;;15.27;9.32;;;11.70;99.90;;;;;;5054431;28;20032;-69
2023/05/10 04:37:55;;;;;;;17.10;9.32;;;11.70;99.90;;;;;;5049741;28;20048;-69
2023/05/10 04:40:20;;;;;;;14.68;9.88;;;11.70;99.90;;;;;;5047227;28;20037;-69
2023/05/10 04:42:46;;;;;;;16.58;10.20;;;11.70;99.90;;;;;;5027150;28;20049;-68
2023/05/10 04:45:14;;;;;;;17.42;10.57;;;11.70;99.90;;;;;;5046638;28;20041;-68
2023/05/10 04:47:40;;;;;;;17.70;10.50;;;11.80;99.90;;;;;;5048294;28;20244;-70
2023/05/10 04:50:07;;;;;;;20.65;10.65;;;11.80;99.90;;;;;;5046981;28;20045;-69
2023/05/10 04:52:33;;;;;;;17.58;9.55;;;11.80;99.90;;;;;;5043671;28;20134;-69
2023/05/10 04:54:58;;;;;;;14.88;9.18;;;11.80;99.90;;;;;;5030135;28;20131;-69
2023/05/10 04:57:24;;;;;;;17.13;10.35;;;11.80;99.90;;;;;;5029542;28;20448;-69
2023/05/10 04:59:50;;;;;;;16.02;10.27;;;11.80;99.90;;;;;;5030125;28;20587;-69
2023/05/10 05:02:16;;;;;;;13.23;8.55;;;11.80;99.90;;;;;;5031270;28;20053;-69
2023/05/10 05:04:42;;;;;;;17.27;10.07;;;11.80;99.90;;;;;;5033856;28;20044;-69
2023/05/10 05:07:07;;;;;;;17.83;10.20;;;11.80;99.90;;;;;;5030943;28;20119;-69
2023/05/10 05:09:33;;;;;;;20.73;10.75;;;11.80;99.90;;;;;;5029060;28;20052;-69
2023/05/10 05:11:59;;;;;;;17.02;9.82;;;11.80;99.90;;;;;;5000224;28;20036;-69
2023/05/10 05:14:25;;;;;;;17.75;10.70;;;11.80;99.90;;;;;;5045731;28;20062;-68
2023/05/10 05:16:54;;;;;;;15.27;9.77;;;11.80;99.90;;;;;;5014267;28;20029;-68
2023/05/10 05:19:20;;;;;;;19.73;10.38;;;11.90;99.90;;;;;;5028155;28;20510;-69
2023/05/10 05:21:45;;;;;;;18.98;10.50;;;11.80;99.90;;;;;;5034872;28;20128;-68
2023/05/10 05:24:12;;;;;;;22.02;11.68;;;11.90;99.90;;;;;;5050816;28;20045;-69
2023/05/10 05:26:38;;;;;;;18.83;10.25;;;11.90;99.90;;;;;;5027065;28;20036;-69
2023/05/10 05:29:04;;;;;;;16.98;10.60;;;11.90;99.90;;;;;;5030120;28;20317;-69
2023/05/10 05:31:30;;;;;;;20.38;11.80;;;11.90;99.90;;;;;;5042799;28;20052;-69
2023/05/10 05:33:56;;;;;;;24.15;12.52;;;11.90;99.90;;;;;;5046789;28;20036;-68
2023/05/10 05:36:22;;;;;;;22.02;11.68;;;11.90;99.90;;;;;;5025683;28;20106;-68
2023/05/10 05:38:47;;;;;;;22.58;12.07;;;11.90;99.90;;;;;;5048967;28;20032;-68
2023/05/10 05:41:13;;;;;;;21.77;12.20;;;11.90;99.90;;;;;;5050098;28;20055;-68
2023/05/10 05:43:39;;;;;;;26.13;13.90;;;11.90;99.90;;;;;;5055362;28;20120;-69
2023/05/10 05:46:05;;;;;;;25.75;13.10;;;11.90;99.90;;;;;;5034174;28;20083;-69
2023/05/10 05:48:31;;;;;;;23.08;12.50;;;11.90;99.90;;;;;;5030455;28;20501;-68
2023/05/10 05:50:57;;;;;;;23.50;11.43;;;11.90;99.90;;;;;;5027705;28;20039;-68
2023/05/10 05:53:23;;;;;;;27.63;12.90;;;11.90;99.90;;;;;;5047966;28;20052;-68
2023/05/10 05:55:57;;;;;;;28.85;12.95;;;11.90;99.90;;;;;;5044699;28;20094;-68
2023/05/10 05:58:24;;;;;;;22.20;12.20;;;11.90;99.90;;;;;;5048111;28;20253;-69
2023/05/10 06:00:51;;;;;;;27.83;12.35;;;12.00;99.90;;;;;;5045566;28;20041;-69
2023/05/10 06:03:17;;;;;;;25.67;12.77;;;12.00;99.90;;;;;;5043777;28;20401;-69
2023/05/10 06:05:43;;;;;;;24.70;11.95;;;12.00;99.90;;;;;;5043043;28;20107;-70
2023/05/10 06:08:09;;;;;;;21.88;10.52;;;12.10;99.90;;;;;;5026040;28;20041;-69
2023/05/10 06:10:35;;;;;;;21.05;11.93;;;12.10;99.90;;;;;;5043448;28;20052;-69
2023/05/10 06:13:01;;;;;;;20.92;11.52;;;12.10;99.90;;;;;;5052110;28;20651;-68
2023/05/10 06:15:27;;;;;;;20.58;10.88;;;12.10;99.90;;;;;;5028938;28;20037;-68
2023/05/10 06:17:53;;;;;;;20.88;10.00;;;12.10;99.90;;;;;;5055679;28;20093;-68
2023/05/10 06:20:18;;;;;;;22.38;10.35;;;12.10;99.90;;;;;;5047297;28;20039;-68
2023/05/10 06:22:44;;;;;;;21.00;10.77;;;12.10;99.90;;;;;;5052922;28;20486;-68
2023/05/10 06:25:11;;;;;;;21.08;10.20;;;12.10;99.90;;;;;;5055013;28;20033;-68
2023/05/10 06:27:36;;;;;;;15.68;9.05;;;12.10;99.90;;;;;;5046155;28;20514;-69
2023/05/10 06:30:03;;;;;;;18.67;9.85;;;12.10;99.90;;;;;;5066424;28;20136;-69
2023/05/10 06:32:28;;;;;;;19.50;9.35;;;12.10;99.90;;;;;;5033267;28;20487;-69
2023/05/10 06:34:54;;;;;;;17.45;8.90;;;12.10;99.90;;;;;;5031672;28;20273;-69
2023/05/10 06:37:20;;;;;;;21.77;9.43;;;12.10;99.90;;;;;;5059842;28;20047;-69
2023/05/10 06:39:45;;;;;;;15.60;8.55;;;12.10;99.90;;;;;;5023631;28;20237;-68
2023/05/10 06:42:11;;;;;;;15.50;8.73;;;12.10;99.90;;;;;;5049863;28;20352;-68
2023/05/10 06:44:37;;;;;;;17.13;8.25;;;12.10;99.90;;;;;;5047336;28;20429;-68
2023/05/10 06:47:03;;;;;;;14.15;7.60;;;12.10;99.90;;;;;;5036239;28;20037;-68
2023/05/10 06:49:28;;;;;;;14.68;8.85;;;12.10;99.90;;;;;;5052313;28;20051;-68
2023/05/10 06:51:56;;;;;;;14.10;8.05;;;12.10;99.90;;;;;;5061903;28;20029;-68
2023/05/10 06:54:22;;;;;;;14.88;8.48;;;12.10;99.90;;;;;;5065132;28;20045;-68
2023/05/10 06:56:48;;;;;;;18.65;8.80;;;12.10;99.90;;;;;;5057764;28;20409;-69
2023/05/10 06:59:16;;;;;;;14.77;7.55;;;12.20;99.90;;;;;;5035404;28;20158;-69
2023/05/10 07:01:42;;;;;;;18.08;8.60;;;12.10;99.90;;;;;;5063542;28;20119;-69
2023/05/10 07:04:08;;;;;;;17.55;8.07;;;12.10;99.90;;;;;;5058847;28;20186;-68
2023/05/10 07:06:33;;;;;;;16.58;8.68;;;12.10;99.90;;;;;;5046079;28;20410;-69
2023/05/10 07:09:00;;;;;;;16.92;7.68;;;12.20;99.90;;;;;;5014110;28;20037;-68
2023/05/10 07:11:26;;;;;;;16.45;7.70;;;12.20;99.90;;;;;;5053853;28;20167;-69
2023/05/10 07:13:52;;;;;;;13.40;7.32;;;12.20;99.90;;;;;;5040783;28;20040;-68
2023/05/10 07:16:18;;;;;;;14.50;7.35;;;12.20;99.90;;;;;;5059637;28;20037;-69
2023/05/10 07:18:44;;;;;;;13.02;7.75;;;12.30;99.90;;;;;;5056221;28;20051;-69
2023/05/10 07:21:10;;;;;;;14.63;8.25;;;12.30;99.90;;;;;;5017080;28;20036;-68
2023/05/10 07:23:35;;;;;;;15.50;7.45;;;12.40;99.90;;;;;;5033450;28;20134;-69
2023/05/10 07:26:02;;;;;;;14.88;7.75;;;12.40;99.90;;;;;;5050909;28;20098;-69
2023/05/10 07:28:27;;;;;;;13.02;7.10;;;12.50;99.90;;;;;;5047670;28;20057;-69
2023/05/10 07:30:53;;;;;;;18.10;8.48;;;12.50;99.90;;;;;;5058509;28;20241;-70
2023/05/10 07:33:19;;;;;;;14.40;7.55;;;12.60;99.90;;;;;;5064721;28;20038;-69
2023/05/10 07:35:45;;;;;;;14.10;7.82;;;12.70;99.90;;;;;;5030324;28;20041;-69
2023/05/10 07:38:13;;;;;;;14.52;7.03;;;12.70;99.90;;;;;;5024383;28;20082;-70
2023/05/10 07:40:39;;;;;;;15.23;8.07;;;12.80;99.90;;;;;;5052217;28;20040;-69
2023/05/10 07:43:05;;;;;;;12.95;6.82;;;12.90;99.90;;;;;;5067273;28;20094;-69
2023/05/10 07:45:30;;;;;;;10.85;6.20;;;12.90;99.90;;;;;;5006236;28;20438;-69
2023/05/10 07:47:56;;;;;;;12.82;6.57;;;12.90;99.90;;;;;;5036184;28;20457;-69
2023/05/10 07:50:22;;;;;;;12.68;7.15;;;12.90;99.90;;;;;;5023135;28;20033;-69
2023/05/10 07:52:48;;;;;;;13.75;6.90;;;12.90;99.90;;;;;;5044693;28;20098;-69
2023/05/10 07:55:14;;;;;;;12.65;7.22;;;13.00;99.90;;;;;;5048993;28;20036;-69
2023/05/10 07:57:39;;;;;;;12.85;6.93;;;13.00;99.90;;;;;;5036530;28;20090;-70
2023/05/10 08:00:07;;;;;;;10.85;6.68;;;13.00;99.90;;;;;;5050009;28;20040;-69
2023/05/10 08:02:34;;;;;;;14.30;6.50;;;13.00;99.90;;;;;;5040430;28;20094;-69
2023/05/10 08:05:00;;;;;;;13.40;7.85;;;13.10;99.90;;;;;;5038167;28;20615;-70
2023/05/10 08:07:26;;;;;;;14.23;6.80;;;13.00;99.90;;;;;;5034469;28;20032;-69
2023/05/10 08:09:52;;;;;;;12.45;7.00;;;13.10;99.90;;;;;;5034771;28;20095;-69
2023/05/10 08:12:17;;;;;;;9.43;5.55;;;13.10;99.90;;;;;;5025073;28;20033;-69
2023/05/10 08:14:43;;;;;;;11.23;5.63;;;13.10;99.90;;;;;;5032402;28;20509;-69
2023/05/10 08:17:09;;;;;;;8.90;5.28;;;13.00;99.90;;;;;;5036613;28;20501;-69
2023/05/10 08:19:34;;;;;;;7.95;5.03;;;13.10;99.90;;;;;;5051737;28;20574;-69
2023/05/10 08:22:00;;;;;;;10.27;6.15;;;13.10;99.90;;;;;;5067948;28;20554;-70
2023/05/10 08:24:26;;;;;;;7.03;4.32;;;13.10;99.90;;;;;;5046306;28;20082;-69
2023/05/10 08:26:52;;;;;;;8.52;5.38;;;13.10;99.90;;;;;;5056558;28;20060;-69
2023/05/10 08:29:18;;;;;;;8.57;5.47;;;13.20;99.90;;;;;;5041827;28;20063;-69
2023/05/10 08:31:43;;;;;;;10.88;5.85;;;13.30;99.90;;;;;;5062887;28;20421;-69
2023/05/10 08:34:09;;;;;;;9.98;5.75;;;13.40;99.90;;;;;;5047685;28;20079;-69
2023/05/10 08:36:36;;;;;;;12.38;5.97;;;13.40;99.90;;;;;;5032337;28;20489;-70
2023/05/10 08:39:02;;;;;;;8.07;5.32;;;13.40;99.90;;;;;;5071353;28;20548;-70
2023/05/10 08:41:28;;;;;;;8.55;5.28;;;13.40;99.90;;;;;;5056834;28;20049;-69
2023/05/10 08:43:54;;;;;;;9.43;5.60;;;13.30;99.90;;;;;;5071583;28;20048;-70
2023/05/10 08:46:22;;;;;;;8.68;4.50;;;13.40;99.90;;;;;;5053225;28;20426;-69
2023/05/10 08:48:49;;;;;;;6.65;4.50;;;13.30;99.90;;;;;;5071486;28;20403;-69
2023/05/10 08:51:19;;;;;;;6.07;4.05;;;13.20;99.90;;;;;;5071282;28;20040;-69
2023/05/10 08:53:45;;;;;;;7.43;4.57;;;13.20;99.90;;;;;;5053219;28;20037;-69
2023/05/10 08:56:12;;;;;;;6.05;3.78;;;13.20;99.90;;;;;;5042471;28;20053;-69
2023/05/10 08:58:38;;;;;;;7.68;4.15;;;13.20;99.90;;;;;;5067146;28;20036;-69
2023/05/10 09:01:05;;;;;;;7.18;4.30;;;13.20;99.90;;;;;;5050401;28;20049;-69
2023/05/10 09:03:32;;;;;;;5.32;3.63;;;13.30;99.90;;;;;;5050470;28;20055;-69
2023/05/10 09:05:58;;;;;;;7.07;3.67;;;13.40;99.90;;;;;;5033068;28;20051;-69
2023/05/10 09:08:28;;;;;;;5.30;3.78;;;13.50;99.90;;;;;;5048853;28;20055;-69
2023/05/10 09:10:55;;;;;;;6.65;3.75;;;13.60;99.90;;;;;;5029985;28;20183;-69
2023/05/10 09:13:23;;;;;;;4.32;3.10;;;13.90;99.90;;;;;;5062377;28;20040;-69
2023/05/10 09:15:49;;;;;;;4.60;3.47;;;13.90;99.90;;;;;;5016940;28;20378;-70
2023/05/10 09:18:15;;;;;;;3.78;2.88;;;14.10;99.90;;;;;;5050646;28;20052;-69
2023/05/10 09:20:41;;;;;;;5.05;3.72;;;14.10;99.90;;;;;;5051821;28;20041;-69
2023/05/10 09:23:06;;;;;;;4.03;3.17;;;14.20;99.90;;;;;;5069032;28;20044;-69
2023/05/10 09:25:33;;;;;;;4.57;3.38;;;14.10;99.90;;;;;;5056469;28;20087;-69
2023/05/10 09:27:59;;;;;;;4.13;2.88;;;14.00;99.90;;;;;;5048113;28;20055;-69
2023/05/10 09:30:27;;;;;;;6.10;4.32;;;13.90;99.90;;;;;;5063881;28;20048;-69
2023/05/10 09:32:54;;;;;;;7.35;4.22;;;13.80;99.90;;;;;;5065646;28;20102;-69
2023/05/10 09:35:23;;;;;;;10.70;5.53;;;13.70;99.90;;;;;;5058734;28;20055;-69
2023/05/10 09:37:53;;;;;;;7.60;5.57;;;13.60;99.90;;;;;;5070089;28;20041;-69
2023/05/10 09:40:27;;;;;;;8.25;5.50;;;13.50;99.90;;;;;;5068486;28;20038;-69
2023/05/10 09:43:00;;;;;;;7.68;4.72;;;13.40;99.90;;;;;;5055692;28;20048;-68
2023/05/10 09:45:31;;;;;;;10.10;6.00;;;13.30;99.90;;;;;;5068660;28;20045;-69
2023/05/10 09:47:58;;;;;;;8.52;5.03;;;13.30;99.90;;;;;;5041613;28;20556;-68
2023/05/10 09:50:25;;;;;;;8.50;5.22;;;13.30;99.90;;;;;;5061009;28;20379;-69
2023/05/10 09:53:03;;;;;;;7.18;5.10;;;13.40;99.90;;;;;;5038366;28;20094;-69
2023/05/10 09:55:46;;;;;;;8.43;5.20;;;13.50;99.90;;;;;;5061807;28;20482;-69
2023/05/10 09:58:13;;;;;;;12.88;5.20;;;13.90;99.90;;;;;;5052689;28;20033;-69
2023/05/10 10:00:44;;;;;;;5.72;4.38;;;14.40;99.90;;;;;;5064816;28;20047;-69
2023/05/10 10:03:15;;;;;;;7.57;4.63;;;14.70;99.90;;;;;;5046847;28;20101;-69
2023/05/10 10:05:43;;;;;;;7.47;4.80;;;14.70;99.90;;;;;;5053370;28;20040;-69
2023/05/10 10:08:09;;;;;;;5.38;4.03;;;14.70;99.90;;;;;;5069468;28;20041;-69
2023/05/10 10:10:35;;;;;;;7.07;4.75;;;14.50;99.90;;;;;;5066202;28;20051;-69
2023/05/10 10:13:01;;;;;;;7.32;4.75;;;14.50;99.90;;;;;;5059364;28;20047;-68
2023/05/10 10:15:27;;;;;;;6.45;4.90;;;14.30;99.90;;;;;;5068873;28;20518;-69
2023/05/10 10:17:53;;;;;;;11.43;4.80;;;14.40;99.90;;;;;;5057982;28;20036;-69
2023/05/10 10:20:21;;;;;;;7.55;4.93;;;14.30;99.90;;;;;;5068602;28;20536;-69
2023/05/10 10:22:47;;;;;;;8.60;5.82;;;14.30;99.90;;;;;;5057282;28;20067;-69
2023/05/10 10:25:15;;;;;;;8.27;5.65;;;14.20;99.90;;;;;;5048676;28;20549;-70
2023/05/10 10:27:48;;;;;;;8.75;6.47;;;14.10;99.90;;;;;;5060332;28;20052;-69
2023/05/10 10:30:23;;;;;;;10.38;5.85;;;14.10;99.90;;;;;;5045583;28;20093;-69
2023/05/10 10:33:10;;;;;;;9.18;5.80;;;14.00;99.90;;;;;;5048644;28;20460;-69
2023/05/10 10:35:36;;;;;;;7.75;6.20;;;14.00;99.90;;;;;;5034552;28;20094;-69
2023/05/10 10:38:02;;;;;;;8.52;6.00;;;14.10;99.90;;;;;;5016442;28;20519;-69
2023/05/10 10:40:34;;;;;;;8.45;5.63;;;14.30;99.90;;;;;;5047340;28;20072;-69
2023/05/10 10:43:21;;;;;;;8.95;5.80;;;14.40;99.90;;;;;;5039581;28;20084;-69
2023/05/10 10:46:16;;;;;;;9.82;7.05;;;14.30;99.90;;;;;;5046697;28;20033;-69
2023/05/10 10:48:52;;;;;;;9.40;6.65;;;14.40;99.90;;;;;;5047534;28;20032;-69
2023/05/10 10:51:17;;;;;;;8.60;5.70;;;14.50;99.90;;;;;;5026035;28;20052;-70
2023/05/10 10:53:44;;;;;;;9.88;6.28;;;14.50;99.90;;;;;;5027327;28;20127;-69
2023/05/10 10:56:13;;;;;;;11.13;6.55;;;14.60;99.90;;;;;;5043196;28;20064;-70
2023/05/10 10:58:39;;;;;;;9.95;6.50;;;14.50;99.90;;;;;;5032303;28;20041;-70
2023/05/10 11:01:19;;;;;;;10.13;6.70;;;14.60;99.90;;;;;;5028785;28;20115;-69
2023/05/10 11:04:00;;;;;;;10.85;6.28;;;14.70;99.90;;;;;;5046319;28;20049;-69
2023/05/10 11:06:31;;;;;;;9.68;7.50;;;14.60;99.90;;;;;;5025862;28;20040;-69
2023/05/10 11:08:57;;;;;;;9.93;6.90;;;14.70;99.90;;;;;;5027081;28;20041;-69
2023/05/10 11:11:23;;;;;;;8.73;6.13;;;14.70;99.90;;;;;;5034261;28;20179;-77
2023/05/10 11:13:49;;;;;;;7.82;6.43;;;14.60;99.90;;;;;;5032520;28;20506;-77
2023/05/10 11:16:20;;;;;;;7.60;6.15;;;14.70;99.90;;;;;;5029397;28;20068;-76
2023/05/10 11:19:13;;;;;;;9.52;5.60;;;14.60;99.90;;;;;;5033335;28;20132;-76
2023/05/10 11:22:05;;;;;;;11.77;6.53;;;14.40;99.90;;;;;;5020223;28;20061;-76
2023/05/10 11:24:31;;;;;;;9.50;6.38;;;14.30;99.90;;;;;;5000603;28;20079;-77
2023/05/10 11:26:56;;;;;;;14.20;6.85;;;14.30;99.90;;;;;;5012672;28;20482;-74
2023/05/10 11:29:22;;;;;;;11.05;6.68;;;14.40;99.90;;;;;;5011550;28;20056;-76
2023/05/10 11:31:49;;;;;;;9.73;6.43;;;14.40;99.90;;;;;;5012249;28;20044;-76
2023/05/10 11:34:27;;;;;;;10.55;6.22;;;14.50;99.90;;;;;;5013251;28;20049;-77
2023/05/10 11:36:54;;;;;;;10.13;5.28;;;14.60;99.90;;;;;;5026868;28;20037;-77
2023/05/10 11:39:21;;;;;;;7.35;5.45;;;14.70;99.90;;;;;;5011307;28;20129;-76
2023/05/10 11:41:49;;;;;;;8.13;5.82;;;14.70;99.90;;;;;;5010487;28;20498;-76
2023/05/10 11:44:14;;;;;;;10.65;6.07;;;14.80;99.90;;;;;;4996808;28;20045;-77
2023/05/10 11:46:40;;;;;;;11.73;6.55;;;14.70;99.90;;;;;;5027861;28;20114;-77
2023/05/10 11:49:07;;;;;;;9.20;6.32;;;14.80;99.90;;;;;;4997565;28;20045;-77
2023/05/10 11:51:36;;;;;;;8.65;6.68;;;14.90;99.90;;;;;;5030145;28;20029;-76
2023/05/10 11:54:08;;;;;;;11.52;7.35;;;14.90;99.90;;;;;;5029906;28;20136;-76
2023/05/10 11:56:34;;;;;;;9.73;6.85;;;14.90;99.90;;;;;;5013722;28;21671;-75
2023/05/10 11:59:01;;;;;;;8.40;6.70;;;14.90;99.90;;;;;;5013550;28;20036;-75
2023/05/10 12:01:28;;;;;;;8.40;6.45;;;15.00;99.90;;;;;;5016426;28;20045;-75
2023/05/10 12:03:58;;;;;;;8.88;5.80;;;15.10;99.90;;;;;;5034510;28;20080;-76
2023/05/10 12:06:28;;;;;;;6.82;5.68;;;15.20;99.90;;;;;;5033759;28;20045;-75
2023/05/10 12:08:54;;;;;;;7.50;5.22;;;15.20;99.90;;;;;;5033903;28;20053;-75
2023/05/10 12:11:21;;;;;;;8.00;5.57;;;15.20;99.90;;;;;;5017666;28;20053;-76
2023/05/10 12:13:47;;;;;;;8.88;5.70;;;15.20;99.90;;;;;;5016351;28;20123;-75
2023/05/10 12:16:24;;;;;;;7.88;5.30;;;15.20;99.90;;;;;;5033499;28;20037;-75
2023/05/10 12:18:56;;;;;;;8.90;6.20;;;15.20;99.90;;;;;;5036696;28;20870;-75
2023/05/10 12:21:23;;;;;;;6.57;5.00;;;15.40;99.90;;;;;;5034977;28;20088;-76
2023/05/10 12:23:51;;;;;;;6.85;4.82;;;15.40;99.90;;;;;;5032837;28;20067;-76
2023/05/10 12:26:17;;;;;;;8.48;4.90;;;15.40;99.90;;;;;;5016990;28;20047;-75
2023/05/10 12:28:43;;;;;;;7.63;4.35;;;15.30;99.90;;;;;;5015824;28;20048;-75
2023/05/10 12:31:08;;;;;;;7.68;4.95;;;15.30;99.90;;;;;;5034584;28;20410;-75
2023/05/10 12:33:42;;;;;;;6.00;4.78;;;15.40;99.90;;;;;;5034088;28;20029;-75
2023/05/10 12:36:12;;;;;;;5.85;4.68;;;15.40;99.90;;;;;;5018773;28;20044;-75
2023/05/10 12:38:43;;;;;;;8.52;5.13;;;15.40;99.90;;;;;;5017056;28;20131;-75
2023/05/10 12:41:18;;;;;;;7.82;5.25;;;15.30;99.90;;;;;;5001363;28;20041;-75
2023/05/10 12:43:45;;;;;;;6.15;4.75;;;15.30;99.90;;;;;;4984212;28;20072;-75
2023/05/10 12:46:12;;;;;;;8.75;5.13;;;15.20;99.90;;;;;;5031664;28;20045;-75